Time;durP1;ratioP1;P1;durP2;ratioP2;P2;SDS_P1;SDS_P2;PMS_P1;PMS_P2;Temp;Humidity;BMP_temperature;BMP_pressure;BME280_temperature;BME280_humidity;BME280_pressure;Samples;Min_cycle;Max_cycle;Signal;HPM_P1;HPM_P2
2022/01/09 00:01:27;;;;;;;5.00;1.40;;;;;;;;;;5112928;28;20040;-78
2022/01/09 00:03:53;;;;;;;10.57;1.65;;;;;;;;;;5106556;28;20106;-77
2022/01/09 00:06:19;;;;;;;8.88;1.75;;;;;;;;;;5111921;28;20038;-78
2022/01/09 00:08:45;;;;;;;6.80;1.73;;;;;;;;;;5127436;28;20035;-77
2022/01/09 00:11:12;;;;;;;14.38;1.98;;;;;;;;;;5133134;28;20423;-76
2022/01/09 00:13:38;;;;;;;9.68;2.10;;;;;;;;;;5132617;28;20023;-77
2022/01/09 00:16:05;;;;;;;9.18;2.13;;;;;;;;;;5132668;28;20109;-75
2022/01/09 00:18:31;;;;;;;8.18;2.17;;;;;;;;;;5132629;28;20791;-76
2022/01/09 00:20:56;;;;;;;15.43;2.60;;;;;;;;;;5134112;27;20027;-76
2022/01/09 00:23:22;;;;;;;7.45;2.30;;;;;;;;;;5136739;27;20023;-76
2022/01/09 00:25:48;;;;;;;8.63;2.78;;;;;;;;;;5136527;27;20416;-76
2022/01/09 00:28:15;;;;;;;12.38;2.60;;;;;;;;;;5136533;27;20124;-77
2022/01/09 00:30:41;;;;;;;9.35;2.05;;;;;;;;;;5118000;27;20023;-76
2022/01/09 00:33:08;;;;;;;8.95;2.15;;;;;;;;;;5116007;27;20343;-76
2022/01/09 00:35:34;;;;;;;11.30;2.60;;;;;;;;;;5136109;27;20087;-76
2022/01/09 00:38:01;;;;;;;12.60;2.65;;;;;;;;;;5117198;27;20018;-76
2022/01/09 00:40:27;;;;;;;10.32;2.20;;;;;;;;;;5130991;27;20034;-77
2022/01/09 00:42:53;;;;;;;11.65;2.28;;;;;;;;;;5134345;27;20027;-75
2022/01/09 00:45:19;;;;;;;15.20;2.80;;;;;;;;;;5135262;27;20027;-77
2022/01/09 00:47:45;;;;;;;11.43;2.83;;;;;;;;;;5132566;27;20027;-76
2022/01/09 00:50:12;;;;;;;15.27;2.95;;;;;;;;;;5131825;27;20027;-78
2022/01/09 00:52:38;;;;;;;37.70;3.40;;;;;;;;;;5132121;27;20076;-77
2022/01/09 00:55:05;;;;;;;27.17;3.13;;;;;;;;;;5117767;27;20031;-78
2022/01/09 00:57:31;;;;;;;15.48;2.58;;;;;;;;;;5128015;27;20530;-77
2022/01/09 00:59:57;;;;;;;15.13;3.10;;;;;;;;;;5123521;27;20065;-77
2022/01/09 01:02:23;;;;;;;23.25;3.03;;;;;;;;;;5128521;27;20102;-77
2022/01/09 01:04:51;;;;;;;18.95;3.53;;;;;;;;;;5114129;27;20016;-77
2022/01/09 01:07:18;;;;;;;15.27;2.90;;;;;;;;;;5134270;27;20064;-77
2022/01/09 01:09:44;;;;;;;10.70;2.60;;;;;;;;;;5134852;27;20056;-80
2022/01/09 01:12:10;;;;;;;9.93;2.78;;;;;;;;;;5132829;27;20031;-77
2022/01/09 01:14:36;;;;;;;21.25;3.33;;;;;;;;;;5136566;27;20031;-79
2022/01/09 01:17:03;;;;;;;20.23;2.90;;;;;;;;;;5118593;27;20026;-81
2022/01/09 01:19:29;;;;;;;10.60;2.58;;;;;;;;;;5116172;27;20027;-79
2022/01/09 01:21:55;;;;;;;9.32;2.33;;;;;;;;;;5124334;27;20484;-79
2022/01/09 01:24:22;;;;;;;9.25;2.85;;;;;;;;;;5103111;27;20110;-77
2022/01/09 01:26:50;;;;;;;13.32;3.25;;;;;;;;;;5107491;27;20555;-78
2022/01/09 01:29:17;;;;;;;21.48;2.97;;;;;;;;;;5117378;27;20493;-77
2022/01/09 01:31:43;;;;;;;12.23;2.97;;;;;;;;;;5105709;27;20023;-77
2022/01/09 01:34:12;;;;;;;11.82;3.28;;;;;;;;;;5111480;27;20051;-78
2022/01/09 01:36:37;;;;;;;13.10;3.42;;;;;;;;;;5128157;27;20023;-77
2022/01/09 01:39:03;;;;;;;9.82;3.33;;;;;;;;;;5135928;27;20023;-77
2022/01/09 01:41:29;;;;;;;11.07;2.75;;;;;;;;;;5135893;27;20044;-78
2022/01/09 01:43:55;;;;;;;12.70;2.88;;;;;;;;;;5135782;27;20065;-78
2022/01/09 01:46:22;;;;;;;10.50;2.97;;;;;;;;;;5136067;27;20072;-77
2022/01/09 01:48:48;;;;;;;11.20;2.78;;;;;;;;;;5134412;27;20058;-79
2022/01/09 01:51:14;;;;;;;13.35;3.30;;;;;;;;;;5109830;27;20096;-78
2022/01/09 01:53:40;;;;;;;15.23;3.42;;;;;;;;;;5114958;27;20031;-79
2022/01/09 01:56:07;;;;;;;9.18;2.70;;;;;;;;;;5129735;27;20403;-78
2022/01/09 01:58:34;;;;;;;10.80;2.92;;;;;;;;;;5105343;28;20031;-78
2022/01/09 02:01:01;;;;;;;9.57;3.15;;;;;;;;;;5112581;27;20522;-78
2022/01/09 02:03:27;;;;;;;7.35;2.53;;;;;;;;;;5111047;27;20389;-79
2022/01/09 02:05:53;;;;;;;12.85;3.13;;;;;;;;;;5137307;27;20106;-80
2022/01/09 02:08:19;;;;;;;9.48;3.20;;;;;;;;;;5137581;27;20034;-79
2022/01/09 02:10:45;;;;;;;7.65;2.58;;;;;;;;;;5135799;27;20034;-76
2022/01/09 02:13:11;;;;;;;17.77;3.50;;;;;;;;;;5132897;27;20042;-77
2022/01/09 02:15:45;;;;;;;16.30;2.60;;;;;;;;;;5129357;27;20478;-79
2022/01/09 02:18:16;;;;;;;10.50;2.85;;;;;;;;;;5135126;27;20011;-78
2022/01/09 02:20:42;;;;;;;9.75;2.70;;;;;;;;;;5110671;27;20415;-79
2022/01/09 02:23:09;;;;;;;11.13;2.80;;;;;;;;;;5135087;27;20090;-80
2022/01/09 02:25:36;;;;;;;11.77;2.90;;;;;;;;;;5113003;28;20020;-77
2022/01/09 02:28:02;;;;;;;10.48;2.88;;;;;;;;;;5133333;27;20027;-77
2022/01/09 02:30:32;;;;;;;10.65;2.78;;;;;;;;;;5122507;27;20051;-79
2022/01/09 02:32:58;;;;;;;9.88;2.72;;;;;;;;;;5131910;27;20023;-76
2022/01/09 02:35:24;;;;;;;16.70;3.35;;;;;;;;;;5134425;27;20039;-77
2022/01/09 02:37:50;;;;;;;11.27;3.05;;;;;;;;;;5134538;27;20016;-78
2022/01/09 02:40:16;;;;;;;8.65;2.92;;;;;;;;;;5134489;27;20027;-77
2022/01/09 02:42:42;;;;;;;8.90;2.40;;;;;;;;;;5116475;27;20019;-82
2022/01/09 02:45:08;;;;;;;15.10;3.20;;;;;;;;;;5135104;27;20027;-80
2022/01/09 02:47:37;;;;;;;8.70;2.55;;;;;;;;;;5134770;27;20080;-80
2022/01/09 02:50:42;;;;;;;8.18;2.58;;;;;;;;;;5109265;27;20070;-81
2022/01/09 02:53:02;;;;;;;13.48;2.72;;;;;;;;;;5131474;27;20026;-79
2022/01/09 02:55:29;;;;;;;10.43;2.92;;;;;;;;;;5116109;27;20038;-81
2022/01/09 02:57:55;;;;;;;8.45;2.83;;;;;;;;;;5117041;27;20109;-82
2022/01/09 03:00:28;;;;;;;10.73;2.53;;;;;;;;;;5135384;27;20073;-80
2022/01/09 03:02:55;;;;;;;13.95;2.90;;;;;;;;;;5134636;27;20064;-81
2022/01/09 03:05:21;;;;;;;10.15;2.70;;;;;;;;;;5135123;27;20030;-82
2022/01/09 03:07:47;;;;;;;7.68;2.20;;;;;;;;;;5135317;27;20020;-80
2022/01/09 03:10:14;;;;;;;13.23;2.53;;;;;;;;;;5135461;27;20072;-81
2022/01/09 03:12:40;;;;;;;11.82;3.22;;;;;;;;;;5135180;27;20019;-80
2022/01/09 03:15:07;;;;;;;12.50;2.75;;;;;;;;;;5134951;27;20032;-79
2022/01/09 03:17:33;;;;;;;9.98;2.92;;;;;;;;;;5135012;27;20031;-80
2022/01/09 03:19:59;;;;;;;8.32;2.22;;;;;;;;;;5116501;27;20394;-81
2022/01/09 03:22:26;;;;;;;7.35;2.25;;;;;;;;;;5134921;27;20030;-81
2022/01/09 03:24:52;;;;;;;9.43;2.53;;;;;;;;;;5116506;27;20023;-79
2022/01/09 03:27:18;;;;;;;8.77;2.30;;;;;;;;;;5116197;27;20023;-79
2022/01/09 03:29:44;;;;;;;9.55;2.38;;;;;;;;;;5112658;28;20034;-79
2022/01/09 03:32:11;;;;;;;7.95;2.55;;;;;;;;;;5133489;27;20028;-82
2022/01/09 03:34:38;;;;;;;9.02;2.50;;;;;;;;;;5113197;28;20044;-82
2022/01/09 03:37:04;;;;;;;8.73;2.35;;;;;;;;;;5117417;28;20019;-85
2022/01/09 03:39:30;;;;;;;10.05;2.38;;;;;;;;;;5116096;28;20081;-78
2022/01/09 03:41:58;;;;;;;10.50;2.40;;;;;;;;;;5134437;28;20098;-80
2022/01/09 03:44:24;;;;;;;10.23;2.67;;;;;;;;;;5134902;28;20023;-80
2022/01/09 03:46:50;;;;;;;7.97;2.38;;;;;;;;;;5134297;28;20378;-79
2022/01/09 03:49:16;;;;;;;9.43;2.63;;;;;;;;;;5135662;28;20510;-83
2022/01/09 03:51:44;;;;;;;9.23;2.08;;;;;;;;;;5135319;28;20019;-81
2022/01/09 03:54:10;;;;;;;7.35;2.05;;;;;;;;;;5103790;28;20047;-81
2022/01/09 03:56:37;;;;;;;8.98;2.40;;;;;;;;;;5132842;27;20027;-81
2022/01/09 03:59:03;;;;;;;6.90;1.90;;;;;;;;;;5120078;27;20027;-78
2022/01/09 04:01:29;;;;;;;8.73;2.03;;;;;;;;;;5138120;27;20470;-80
2022/01/09 04:03:55;;;;;;;8.73;2.47;;;;;;;;;;5138939;27;20050;-82
2022/01/09 04:06:23;;;;;;;9.75;2.35;;;;;;;;;;5138483;27;20557;-79
2022/01/09 04:08:51;;;;;;;10.48;2.00;;;;;;;;;;5119527;27;20030;-80
2022/01/09 04:11:22;;;;;;;7.90;2.10;;;;;;;;;;5137310;27;20043;-79
2022/01/09 04:13:48;;;;;;;8.60;2.13;;;;;;;;;;5119074;27;20087;-79
2022/01/09 04:16:14;;;;;;;5.30;1.90;;;;;;;;;;5119174;27;20019;-78
2022/01/09 04:18:40;;;;;;;12.43;2.10;;;;;;;;;;5137290;27;20034;-78
2022/01/09 04:21:06;;;;;;;11.15;2.72;;;;;;;;;;5137284;27;20019;-78
2022/01/09 04:23:32;;;;;;;9.80;2.15;;;;;;;;;;5111283;28;20024;-78
2022/01/09 04:25:58;;;;;;;7.78;1.75;;;;;;;;;;5116952;28;20465;-78
2022/01/09 04:28:24;;;;;;;9.38;2.08;;;;;;;;;;5098546;28;20028;-78
2022/01/09 04:30:50;;;;;;;9.85;1.98;;;;;;;;;;5098493;28;20093;-78
2022/01/09 04:33:16;;;;;;;7.85;1.95;;;;;;;;;;5116229;28;20471;-78
2022/01/09 04:35:43;;;;;;;5.88;2.13;;;;;;;;;;5104032;28;20164;-78
2022/01/09 04:38:09;;;;;;;6.47;1.45;;;;;;;;;;5128883;27;20016;-78
2022/01/09 04:40:35;;;;;;;6.30;1.92;;;;;;;;;;5110352;27;20024;-75
2022/01/09 04:43:04;;;;;;;9.02;1.95;;;;;;;;;;5136896;27;20535;-77
2022/01/09 04:45:30;;;;;;;7.72;2.22;;;;;;;;;;5133104;27;20058;-77
2022/01/09 04:48:00;;;;;;;5.72;1.90;;;;;;;;;;5116956;27;20030;-79
2022/01/09 04:50:29;;;;;;;6.40;1.90;;;;;;;;;;5120042;27;20066;-80
2022/01/09 04:53:00;;;;;;;6.95;1.50;;;;;;;;;;5136689;27;20019;-77
2022/01/09 04:55:27;;;;;;;5.15;1.67;;;;;;;;;;5130906;27;20069;-77
2022/01/09 04:57:53;;;;;;;6.97;1.55;;;;;;;;;;5121539;27;20059;-86
2022/01/09 05:00:19;;;;;;;6.85;1.90;;;;;;;;;;5124507;27;20738;-78
2022/01/09 05:02:45;;;;;;;6.38;1.83;;;;;;;;;;5132289;27;20027;-80
2022/01/09 05:05:11;;;;;;;7.38;1.90;;;;;;;;;;5127216;27;20032;-83
2022/01/09 05:07:38;;;;;;;6.47;1.80;;;;;;;;;;5104800;28;20682;-80
2022/01/09 05:10:05;;;;;;;5.72;2.00;;;;;;;;;;5099028;28;20479;-80
2022/01/09 05:12:31;;;;;;;4.90;1.42;;;;;;;;;;5131087;27;20088;-77
2022/01/09 05:14:57;;;;;;;7.63;1.70;;;;;;;;;;5118199;27;20408;-80
2022/01/09 05:17:23;;;;;;;6.70;1.73;;;;;;;;;;5137260;27;20033;-77
2022/01/09 05:19:51;;;;;;;11.88;2.08;;;;;;;;;;5127307;27;20027;-80
2022/01/09 05:22:17;;;;;;;7.00;1.83;;;;;;;;;;5119474;27;20012;-77
2022/01/09 05:24:43;;;;;;;7.45;1.83;;;;;;;;;;5135424;27;20031;-77
2022/01/09 05:27:09;;;;;;;4.40;1.50;;;;;;;;;;5106467;28;20432;-77
2022/01/09 05:29:38;;;;;;;7.00;1.55;;;;;;;;;;5131259;27;20031;-76
2022/01/09 05:32:05;;;;;;;6.45;1.95;;;;;;;;;;5125267;27;20015;-75
2022/01/09 05:34:31;;;;;;;7.70;1.73;;;;;;;;;;5129236;27;20051;-77
2022/01/09 05:36:57;;;;;;;5.00;1.55;;;;;;;;;;5129814;27;20022;-77
2022/01/09 05:39:23;;;;;;;4.15;1.40;;;;;;;;;;5122846;27;20379;-78
2022/01/09 05:41:50;;;;;;;7.43;1.67;;;;;;;;;;5115772;27;20530;-77
2022/01/09 05:44:18;;;;;;;8.60;2.10;;;;;;;;;;5133728;27;20381;-78
2022/01/09 05:46:44;;;;;;;4.88;1.42;;;;;;;;;;5136053;27;20035;-75
2022/01/09 05:49:10;;;;;;;5.20;1.75;;;;;;;;;;5135570;27;20030;-76
2022/01/09 05:51:36;;;;;;;5.80;1.70;;;;;;;;;;5121933;27;20023;-77
2022/01/09 05:54:02;;;;;;;8.07;1.77;;;;;;;;;;5107010;27;20019;-76
2022/01/09 05:56:28;;;;;;;5.55;1.85;;;;;;;;;;5103957;28;20023;-77
2022/01/09 05:58:54;;;;;;;4.85;1.40;;;;;;;;;;5096731;28;20115;-77
2022/01/09 06:01:20;;;;;;;4.95;1.35;;;;;;;;;;5114927;28;20118;-76
2022/01/09 06:03:46;;;;;;;7.47;1.33;;;;;;;;;;5097517;28;20028;-79
2022/01/09 06:06:12;;;;;;;5.90;1.63;;;;;;;;;;5122154;27;20035;-80
2022/01/09 06:08:38;;;;;;;4.82;1.60;;;;;;;;;;5128074;27;20438;-78
2022/01/09 06:11:04;;;;;;;8.35;1.65;;;;;;;;;;5115838;27;20427;-79
2022/01/09 06:13:30;;;;;;;11.50;1.50;;;;;;;;;;5114820;28;20028;-79
2022/01/09 06:15:56;;;;;;;6.65;1.67;;;;;;;;;;5115583;28;20707;-78
2022/01/09 06:18:22;;;;;;;8.60;1.58;;;;;;;;;;5114719;27;20084;-78
2022/01/09 06:20:49;;;;;;;10.82;1.60;;;;;;;;;;5112969;28;20032;-78
2022/01/09 06:23:20;;;;;;;8.52;1.40;;;;;;;;;;5109050;27;20023;-78
2022/01/09 06:25:47;;;;;;;20.52;2.25;;;;;;;;;;5122054;27;20016;-78
2022/01/09 06:28:13;;;;;;;8.52;1.50;;;;;;;;;;5130323;27;20044;-74
2022/01/09 06:30:39;;;;;;;4.28;1.52;;;;;;;;;;5133844;27;20114;-70
2022/01/09 06:33:05;;;;;;;4.55;1.58;;;;;;;;;;5130239;27;20012;-72
2022/01/09 06:35:31;;;;;;;12.48;1.85;;;;;;;;;;5128996;27;20058;-73
2022/01/09 06:37:57;;;;;;;12.35;1.70;;;;;;;;;;5125136;27;20070;-69
2022/01/09 06:40:23;;;;;;;16.33;1.85;;;;;;;;;;5129025;27;20038;-79
2022/01/09 06:42:49;;;;;;;13.70;1.70;;;;;;;;;;5128490;27;20050;-84
2022/01/09 06:45:15;;;;;;;15.15;2.22;;;;;;;;;;5131535;27;20034;-78
2022/01/09 06:47:41;;;;;;;19.08;1.80;;;;;;;;;;5127337;27;20037;-72
2022/01/09 06:50:10;;;;;;;10.82;1.63;;;;;;;;;;5131735;27;20015;-71
2022/01/09 06:52:36;;;;;;;13.18;1.75;;;;;;;;;;5133996;27;20031;-75
2022/01/09 06:55:03;;;;;;;18.23;1.65;;;;;;;;;;5128176;27;20100;-81
2022/01/09 06:57:28;;;;;;;9.57;1.48;;;;;;;;;;5126969;27;20020;-73
2022/01/09 06:59:54;;;;;;;17.13;1.65;;;;;;;;;;5129846;27;20015;-79
2022/01/09 07:02:27;;;;;;;8.77;1.98;;;;;;;;;;5127378;27;20034;-80
2022/01/09 07:04:53;;;;;;;9.55;1.48;;;;;;;;;;5108819;28;20065;-77
2022/01/09 07:07:19;;;;;;;18.52;1.80;;;;;;;;;;5123720;27;20027;-79
2022/01/09 07:09:45;;;;;;;12.70;2.10;;;;;;;;;;5125171;27;20434;-72
2022/01/09 07:12:11;;;;;;;15.70;1.98;;;;;;;;;;5129787;27;20114;-73
2022/01/09 07:14:37;;;;;;;15.32;1.80;;;;;;;;;;5128355;27;20036;-73
2022/01/09 07:17:03;;;;;;;12.23;1.83;;;;;;;;;;5127391;27;20050;-73
2022/01/09 07:19:29;;;;;;;5.65;1.70;;;;;;;;;;5132175;27;20023;-71
2022/01/09 07:21:56;;;;;;;10.55;1.70;;;;;;;;;;5130525;27;20069;-72
2022/01/09 07:24:22;;;;;;;10.88;1.90;;;;;;;;;;5124981;27;20535;-73
2022/01/09 07:26:48;;;;;;;7.28;1.63;;;;;;;;;;5132044;27;20483;-72
2022/01/09 07:29:14;;;;;;;13.10;1.50;;;;;;;;;;5130142;27;20030;-72
2022/01/09 07:31:40;;;;;;;9.18;1.58;;;;;;;;;;5131390;27;20042;-72
2022/01/09 07:34:05;;;;;;;8.50;1.50;;;;;;;;;;5133338;27;20048;-72
2022/01/09 07:36:32;;;;;;;8.57;1.73;;;;;;;;;;5133898;28;20031;-74
2022/01/09 07:38:58;;;;;;;11.23;1.52;;;;;;;;;;5131222;28;20099;-74
2022/01/09 07:41:24;;;;;;;9.30;1.40;;;;;;;;;;5133804;28;20122;-75
2022/01/09 07:43:50;;;;;;;6.20;1.67;;;;;;;;;;5134390;28;20091;-75
2022/01/09 07:46:16;;;;;;;8.93;1.77;;;;;;;;;;5115756;28;20431;-76
2022/01/09 07:48:42;;;;;;;6.25;1.38;;;;;;;;;;5134117;28;20023;-79
2022/01/09 07:51:09;;;;;;;6.57;1.83;;;;;;;;;;5117167;28;20144;-81
2022/01/09 07:53:35;;;;;;;8.63;1.38;;;;;;;;;;5095520;28;20123;-79
2022/01/09 07:56:01;;;;;;;8.90;1.98;;;;;;;;;;5095170;28;20169;-73
2022/01/09 07:58:27;;;;;;;8.82;1.60;;;;;;;;;;5095339;28;20028;-74
2022/01/09 08:00:53;;;;;;;6.47;1.85;;;;;;;;;;5115274;28;20028;-74
2022/01/09 08:03:19;;;;;;;6.85;1.60;;;;;;;;;;5128212;28;20025;-77
2022/01/09 08:05:45;;;;;;;11.85;1.70;;;;;;;;;;5133499;28;20015;-73
2022/01/09 08:08:11;;;;;;;9.77;1.80;;;;;;;;;;5111853;28;20114;-73
2022/01/09 08:10:37;;;;;;;5.20;1.60;;;;;;;;;;5133205;28;20031;-73
2022/01/09 08:13:03;;;;;;;4.82;1.92;;;;;;;;;;5095660;28;20114;-73
2022/01/09 08:15:29;;;;;;;6.68;1.73;;;;;;;;;;5133667;28;20413;-75
2022/01/09 08:17:55;;;;;;;5.43;1.60;;;;;;;;;;5133894;28;20023;-73
2022/01/09 08:20:21;;;;;;;5.63;1.35;;;;;;;;;;5133744;28;20447;-73
2022/01/09 08:22:48;;;;;;;7.35;1.48;;;;;;;;;;5115409;28;20023;-73
2022/01/09 08:25:14;;;;;;;3.85;1.35;;;;;;;;;;5133692;28;20027;-73
2022/01/09 08:27:40;;;;;;;8.00;1.80;;;;;;;;;;5128222;28;20095;-74
2022/01/09 08:30:07;;;;;;;3.85;1.38;;;;;;;;;;5121159;28;20019;-72
2022/01/09 08:32:33;;;;;;;4.47;1.50;;;;;;;;;;5133669;28;20027;-72
2022/01/09 08:35:00;;;;;;;7.47;1.80;;;;;;;;;;5133121;28;20047;-72
2022/01/09 08:37:26;;;;;;;4.80;1.42;;;;;;;;;;5133756;28;20114;-71
2022/01/09 08:39:52;;;;;;;5.45;1.60;;;;;;;;;;5132901;28;20031;-72
2022/01/09 08:42:18;;;;;;;4.85;1.50;;;;;;;;;;5135618;27;20073;-72
2022/01/09 08:44:44;;;;;;;10.15;1.90;;;;;;;;;;5137116;27;20034;-72
2022/01/09 08:47:10;;;;;;;6.80;1.50;;;;;;;;;;5098509;28;20031;-72
2022/01/09 08:49:36;;;;;;;5.95;1.20;;;;;;;;;;5116829;28;20526;-72
2022/01/09 08:52:03;;;;;;;7.65;1.80;;;;;;;;;;5116595;28;20031;-72
2022/01/09 08:54:29;;;;;;;4.70;1.23;;;;;;;;;;5116162;28;20137;-73
2022/01/09 08:56:55;;;;;;;5.93;1.80;;;;;;;;;;5115974;28;20020;-72
2022/01/09 08:59:21;;;;;;;4.97;1.30;;;;;;;;;;5116338;28;20085;-72
2022/01/09 09:01:47;;;;;;;4.93;1.70;;;;;;;;;;5126309;27;20084;-72
2022/01/09 09:04:14;;;;;;;9.80;1.90;;;;;;;;;;5136856;27;20028;-71
2022/01/09 09:06:40;;;;;;;5.50;1.50;;;;;;;;;;5136935;27;20023;-72
2022/01/09 09:09:07;;;;;;;3.25;1.15;;;;;;;;;;5136636;27;20078;-72
2022/01/09 09:11:33;;;;;;;6.07;1.45;;;;;;;;;;5136540;27;20068;-71
2022/01/09 09:13:59;;;;;;;7.50;1.33;;;;;;;;;;5136349;27;20031;-71
2022/01/09 09:16:25;;;;;;;6.75;1.63;;;;;;;;;;5136504;27;20059;-71
2022/01/09 09:18:52;;;;;;;9.43;1.70;;;;;;;;;;5135450;27;20015;-70
2022/01/09 09:21:19;;;;;;;5.72;1.25;;;;;;;;;;5136355;27;20031;-70
2022/01/09 09:23:45;;;;;;;6.43;1.30;;;;;;;;;;5136515;27;20034;-71
2022/01/09 09:26:11;;;;;;;6.20;1.50;;;;;;;;;;5136058;27;20102;-71
2022/01/09 09:28:37;;;;;;;6.05;1.30;;;;;;;;;;5140394;27;20432;-70
2022/01/09 09:31:03;;;;;;;5.75;1.52;;;;;;;;;;5137617;27;20048;-71
2022/01/09 09:33:29;;;;;;;5.85;1.48;;;;;;;;;;5122319;27;20042;-71
2022/01/09 09:35:58;;;;;;;8.10;1.80;;;;;;;;;;5138333;27;20047;-71
2022/01/09 09:38:24;;;;;;;4.38;1.10;;;;;;;;;;5138316;27;20022;-69
2022/01/09 09:40:51;;;;;;;5.30;1.48;;;;;;;;;;5135651;27;20031;-69
2022/01/09 09:43:17;;;;;;;3.03;1.27;;;;;;;;;;5122086;27;20110;-69
2022/01/09 09:45:43;;;;;;;3.97;1.17;;;;;;;;;;5128444;27;20021;-69
2022/01/09 09:48:09;;;;;;;7.22;1.60;;;;;;;;;;5146831;27;20027;-71
2022/01/09 09:50:35;;;;;;;6.20;1.65;;;;;;;;;;5139221;27;20034;-73
2022/01/09 09:53:02;;;;;;;5.93;1.58;;;;;;;;;;5135754;27;20015;-69
2022/01/09 09:55:29;;;;;;;4.30;1.38;;;;;;;;;;5138129;27;20039;-76
2022/01/09 09:57:55;;;;;;;7.90;1.50;;;;;;;;;;5123396;28;20039;-82
2022/01/09 10:00:21;;;;;;;3.03;1.30;;;;;;;;;;5116212;28;20032;-70
2022/01/09 10:02:57;;;;;;;6.82;1.83;;;;;;;;;;5119750;28;20091;-70
2022/01/09 10:05:23;;;;;;;3.58;1.40;;;;;;;;;;5123902;28;20098;-70
2022/01/09 10:07:52;;;;;;;4.82;1.65;;;;;;;;;;5132783;27;20430;-71
2022/01/09 10:10:19;;;;;;;5.20;1.55;;;;;;;;;;5133841;27;20038;-69
2022/01/09 10:12:46;;;;;;;3.33;1.30;;;;;;;;;;5131897;27;20042;-70
2022/01/09 10:15:14;;;;;;;6.63;1.50;;;;;;;;;;5120490;27;20111;-70
2022/01/09 10:17:44;;;;;;;3.20;1.30;;;;;;;;;;5127128;27;20031;-69
2022/01/09 10:20:14;;;;;;;3.47;1.30;;;;;;;;;;5118571;27;20102;-69
2022/01/09 10:22:46;;;;;;;6.43;1.77;;;;;;;;;;5128603;27;20054;-72
2022/01/09 10:25:30;;;;;;;2.97;1.30;;;;;;;;;;5102568;28;20035;-70
2022/01/09 10:27:59;;;;;;;3.30;1.38;;;;;;;;;;5121563;27;20019;-69
2022/01/09 10:30:28;;;;;;;3.80;1.50;;;;;;;;;;5117855;27;20023;-70
2022/01/09 10:32:55;;;;;;;7.30;2.15;;;;;;;;;;5126789;27;20092;-69
2022/01/09 10:35:21;;;;;;;7.05;1.83;;;;;;;;;;5116977;27;20055;-69
2022/01/09 10:37:49;;;;;;;6.32;1.27;;;;;;;;;;5133889;27;20065;-70
2022/01/09 10:40:20;;;;;;;4.10;1.50;;;;;;;;;;5134851;27;20027;-78
2022/01/09 10:42:46;;;;;;;4.68;1.45;;;;;;;;;;5129646;27;20065;-73
2022/01/09 10:45:25;;;;;;;4.50;1.30;;;;;;;;;;5108945;27;20023;-73
2022/01/09 10:47:55;;;;;;;6.90;2.00;;;;;;;;;;5133935;27;20045;-71
2022/01/09 10:50:25;;;;;;;4.00;1.33;;;;;;;;;;5126930;27;20024;-74
2022/01/09 10:52:51;;;;;;;4.47;1.52;;;;;;;;;;5115666;27;20043;-70
2022/01/09 10:55:17;;;;;;;4.95;1.52;;;;;;;;;;5123327;27;20040;-72
2022/01/09 10:57:44;;;;;;;6.22;1.55;;;;;;;;;;5113662;28;20045;-74
2022/01/09 11:00:12;;;;;;;6.30;1.20;;;;;;;;;;5129823;27;20058;-73
2022/01/09 11:02:39;;;;;;;5.93;1.60;;;;;;;;;;5115589;27;20059;-70
2022/01/09 11:05:05;;;;;;;11.00;1.75;;;;;;;;;;5133793;27;20530;-79
2022/01/09 11:07:31;;;;;;;6.93;2.00;;;;;;;;;;5134212;27;20023;-77
2022/01/09 11:09:59;;;;;;;22.55;1.65;;;;;;;;;;5100015;28;20055;-75
2022/01/09 11:12:34;;;;;;;10.43;1.75;;;;;;;;;;5095513;28;20382;-74
2022/01/09 11:15:01;;;;;;;13.02;1.92;;;;;;;;;;5115608;27;20080;-69
2022/01/09 11:17:28;;;;;;;9.48;1.80;;;;;;;;;;5113358;28;20036;-75
2022/01/09 11:19:54;;;;;;;11.70;2.00;;;;;;;;;;5095113;28;20030;-69
2022/01/09 11:22:21;;;;;;;7.82;2.13;;;;;;;;;;5113330;28;20138;-71
2022/01/09 11:24:50;;;;;;;18.20;2.22;;;;;;;;;;5094939;28;20530;-71
2022/01/09 11:27:20;;;;;;;23.25;1.88;;;;;;;;;;5127106;27;20024;-71
2022/01/09 11:30:05;;;;;;;14.15;1.80;;;;;;;;;;5122470;27;20026;-69
2022/01/09 11:32:34;;;;;;;8.50;1.77;;;;;;;;;;5094799;28;20023;-71
2022/01/09 11:35:07;;;;;;;18.40;1.65;;;;;;;;;;5094490;28;20184;-69
2022/01/09 11:37:40;;;;;;;9.02;1.58;;;;;;;;;;5117889;28;20023;-69
2022/01/09 11:40:20;;;;;;;5.13;1.77;;;;;;;;;;5133563;28;20419;-69
2022/01/09 11:43:05;;;;;;;13.15;2.47;;;;;;;;;;5116755;28;20031;-69
2022/01/09 11:45:52;;;;;;;10.70;1.60;;;;;;;;;;5113029;28;20435;-71
2022/01/09 11:48:37;;;;;;;15.35;2.22;;;;;;;;;;5112914;28;20027;-71
2022/01/09 11:51:06;;;;;;;10.30;1.92;;;;;;;;;;5094260;28;20485;-70
2022/01/09 11:53:51;;;;;;;6.18;1.88;;;;;;;;;;5114279;28;20371;-71
2022/01/09 11:56:37;;;;;;;12.10;1.83;;;;;;;;;;5095722;28;20032;-71
2022/01/09 11:59:22;;;;;;;12.05;2.10;;;;;;;;;;5112806;28;20352;-76
2022/01/09 12:01:52;;;;;;;14.30;2.22;;;;;;;;;;5113019;28;20027;-67
2022/01/09 12:04:33;;;;;;;8.18;2.15;;;;;;;;;;5131698;28;20031;-68
2022/01/09 12:07:13;;;;;;;10.95;2.20;;;;;;;;;;5133082;28;20027;-69
2022/01/09 12:09:41;;;;;;;12.77;2.33;;;;;;;;;;5133139;28;20031;-70
2022/01/09 12:12:11;;;;;;;12.10;1.85;;;;;;;;;;5133200;28;20023;-70
2022/01/09 12:14:44;;;;;;;6.57;1.83;;;;;;;;;;5133071;28;20092;-68
2022/01/09 12:17:28;;;;;;;17.05;2.17;;;;;;;;;;5135234;27;20024;-68
2022/01/09 12:19:54;;;;;;;14.18;2.42;;;;;;;;;;5137654;27;20381;-69
2022/01/09 12:22:41;;;;;;;12.48;1.70;;;;;;;;;;5136729;27;20434;-68
2022/01/09 12:25:07;;;;;;;15.15;2.10;;;;;;;;;;5137017;27;20454;-71
2022/01/09 12:27:38;;;;;;;8.80;1.55;;;;;;;;;;5136172;27;20035;-71
2022/01/09 12:30:04;;;;;;;6.68;2.00;;;;;;;;;;5123342;27;20020;-69
2022/01/09 12:32:39;;;;;;;5.72;1.70;;;;;;;;;;5100885;28;20027;-67
2022/01/09 12:35:16;;;;;;;6.35;1.88;;;;;;;;;;5135919;27;20039;-73
2022/01/09 12:37:46;;;;;;;8.27;2.35;;;;;;;;;;5136979;27;20058;-68
2022/01/09 12:40:14;;;;;;;7.57;2.00;;;;;;;;;;5136551;27;20023;-73
2022/01/09 12:42:43;;;;;;;7.40;1.77;;;;;;;;;;5136286;27;20027;-66
2022/01/09 12:45:09;;;;;;;6.53;1.60;;;;;;;;;;5124425;27;20053;-68
2022/01/09 12:47:40;;;;;;;6.70;1.75;;;;;;;;;;5116141;28;20023;-72
2022/01/09 12:50:06;;;;;;;6.43;1.70;;;;;;;;;;5116170;28;20019;-69
2022/01/09 12:52:32;;;;;;;6.38;1.50;;;;;;;;;;5116211;27;20092;-71
2022/01/09 12:55:08;;;;;;;6.07;1.75;;;;;;;;;;5136330;27;20370;-71
2022/01/09 12:57:50;;;;;;;5.18;1.50;;;;;;;;;;5128999;27;20506;-68
2022/01/09 13:00:16;;;;;;;5.30;1.63;;;;;;;;;;5115901;28;20063;-78
2022/01/09 13:02:51;;;;;;;6.72;1.83;;;;;;;;;;5121503;27;20685;-75
2022/01/09 13:05:21;;;;;;;5.53;1.50;;;;;;;;;;5134039;27;20110;-75
2022/01/09 13:07:54;;;;;;;5.90;1.40;;;;;;;;;;5124447;27;20110;-69
2022/01/09 13:10:21;;;;;;;5.00;1.50;;;;;;;;;;5124309;27;20020;-76
2022/01/09 13:13:00;;;;;;;12.73;1.55;;;;;;;;;;5127922;27;20719;-69
2022/01/09 13:15:36;;;;;;;3.10;1.42;;;;;;;;;;5127343;27;20031;-70
2022/01/09 13:18:03;;;;;;;13.15;2.00;;;;;;;;;;5131675;27;20031;-76
2022/01/09 13:20:30;;;;;;;8.63;1.75;;;;;;;;;;5111215;27;20053;-75
2022/01/09 13:23:22;;;;;;;6.45;1.60;;;;;;;;;;5110137;27;20029;-69
2022/01/09 13:25:49;;;;;;;2.65;1.30;;;;;;;;;;5121582;27;20031;-69
2022/01/09 13:28:19;;;;;;;4.65;1.40;;;;;;;;;;5131488;27;20454;-72
2022/01/09 13:30:46;;;;;;;6.95;1.55;;;;;;;;;;5104143;27;20027;-68
2022/01/09 13:33:12;;;;;;;2.83;1.30;;;;;;;;;;5113259;27;20038;-68
2022/01/09 13:35:38;;;;;;;6.40;1.70;;;;;;;;;;5123660;27;20040;-73
2022/01/09 13:38:04;;;;;;;4.45;1.27;;;;;;;;;;5129905;27;20015;-75
2022/01/09 13:40:30;;;;;;;5.45;1.60;;;;;;;;;;5128249;27;20055;-76
2022/01/09 13:42:56;;;;;;;3.35;1.35;;;;;;;;;;5126415;27;20016;-75
2022/01/09 13:45:23;;;;;;;7.80;1.48;;;;;;;;;;5131383;27;20028;-69
2022/01/09 13:47:50;;;;;;;5.38;1.30;;;;;;;;;;5131127;27;20036;-74
2022/01/09 13:50:18;;;;;;;7.35;1.85;;;;;;;;;;5120669;27;20022;-78
2022/01/09 13:52:44;;;;;;;5.93;1.50;;;;;;;;;;5124918;27;20015;-71
2022/01/09 13:55:12;;;;;;;10.43;1.60;;;;;;;;;;5122826;27;20031;-72
2022/01/09 13:57:49;;;;;;;6.93;1.58;;;;;;;;;;5107298;27;20011;-69
2022/01/09 14:00:15;;;;;;;10.48;2.08;;;;;;;;;;5133911;27;20054;-70
2022/01/09 14:02:42;;;;;;;6.18;1.80;;;;;;;;;;5130350;27;20035;-70
2022/01/09 14:05:09;;;;;;;3.83;1.30;;;;;;;;;;5115121;28;20024;-69
2022/01/09 14:07:38;;;;;;;4.95;1.70;;;;;;;;;;5096798;28;20035;-69
2022/01/09 14:10:05;;;;;;;3.38;1.48;;;;;;;;;;5134213;27;20055;-73
2022/01/09 14:12:34;;;;;;;7.93;1.85;;;;;;;;;;5135495;27;20031;-71
2022/01/09 14:15:10;;;;;;;9.45;1.60;;;;;;;;;;5134950;27;20070;-69
2022/01/09 14:17:36;;;;;;;5.65;1.58;;;;;;;;;;5135097;27;20034;-69
2022/01/09 14:20:20;;;;;;;5.18;1.75;;;;;;;;;;5134863;27;20023;-69
2022/01/09 14:22:47;;;;;;;8.80;1.83;;;;;;;;;;5134891;27;20052;-72
2022/01/09 14:25:15;;;;;;;9.13;1.75;;;;;;;;;;5116764;27;20072;-67
2022/01/09 14:27:44;;;;;;;6.07;1.50;;;;;;;;;;5136941;27;20115;-67
2022/01/09 14:30:31;;;;;;;4.38;1.60;;;;;;;;;;5134263;27;20046;-70
2022/01/09 14:33:12;;;;;;;4.05;1.42;;;;;;;;;;5117059;27;20023;-68
2022/01/09 14:35:58;;;;;;;6.63;1.80;;;;;;;;;;5134475;27;20050;-67
2022/01/09 14:38:26;;;;;;;4.57;1.48;;;;;;;;;;5082499;27;20035;-71
2022/01/09 14:40:53;;;;;;;5.03;1.50;;;;;;;;;;5132480;27;20489;-72
2022/01/09 14:43:20;;;;;;;4.45;1.73;;;;;;;;;;5129297;27;20027;-69